LBPDLBSF

Guest
Details From LBPD - Plovdiv
To LBSF - Sofia
Flight Number -
Tags generated
Created
Modified
Stats Distance 74 nm / 137 km
Max Altitude 4,900 ft / 1,494 m
Waypoints 3
Social Downloads 13
Likes 0
Share VATSIM

Download

Looking for another format? Having issues loading an existing format? Contact us
Advertisement - Login to hide

Notes

Basic altitude profile: - Ascent Rate: 2500ft/min - Ascent Speed: 250kts - Cruise Altitude: 35000ft - Cruise Speed: 420kts - Descent Rate: 1500ft/min - Descent Speed: 250kts Options: - Use NATs: yes - Use PACOTS: yes - Use low airways: yes - Use high airways: yes

Route

LBPD LARAT LBSF

ID Type Via Altitude Latitude Longitude Leg Dist Tot Dist Heading (true) Name
O LBPD APT - 0 ft / 0 m 42.06786˚ 24.85081˚ - 0 nm - Plovdiv
LARAT FIX - 4,900 ft / 1,494 m 42.50167˚ 23.87111˚ 50 nm 50 nm 301° / 301° -
O LBSF APT - 0 ft / 0 m 42.69713˚ 23.41672˚ 23 nm 73 nm 300° / 300° Sofia

Altitude Profile

Advertisement - Login to hide

LBPD

Details ICAO LBPD (PDV)
Name Plovdiv
Region Bulgaria
Timezone Europe/Sofia (UTC+2.0)
Stats Elevation 597 ft / 182 m (AMSL)
Location 42.067856° 24.850814°
Runways 1
Magnetic Variation 5.065° E

METAR

LBPD 112100Z AUTO 28005KT 9999 NCD M01/M02 Q1019

Decode

TAF

TAF LBPD 111700Z 1118/1218 VRB04KT 7000 NSC TEMPO 1200/1207 3000 BR SCT010

Decode

Departure Runways

ID Width Length Bearing (true) Bearing (mag) Surface Threshold Offset Overrun Length
12 164 ft / 50 m 8,200 ft / 2,500 m 127.33° 122.26° Asphalt 0 ft / 0 m 197 ft / 60 m
30 164 ft / 50 m 8,200 ft / 2,500 m 307.35° 302.28° Asphalt 0 ft / 0 m 295 ft / 90 m

LBSF

Details ICAO LBSF (SOF)
Name Sofia
Region Bulgaria
Timezone Europe/Sofia (UTC+2.0)
Stats Elevation 1,741 ft / 531 m (AMSL)
Location 42.697130° 23.416722°
Runways 1
Magnetic Variation 4.933° E

METAR

LBSF 112100Z VRB03KT 3300 BR NSC M02/M03 Q1018 NOSIG

Decode

TAF

TAF LBSF 111700Z 1118/1218 VRB04KT 5000 BR BKN050 TEMPO 1122/1208 1200 BR BKN007 PROB30 1202/1208 0600 FZFG BKN004 BECMG 1208/1210 15010KT

Decode

Destination Runways

ID Width Length Bearing (true) Bearing (mag) Surface Threshold Offset Overrun Length
09 148 ft / 45 m 11,801 ft / 3,597 m 93.99° 89.06° Asphalt 984 ft / 300 m 525 ft / 160 m
27 148 ft / 45 m 11,801 ft / 3,597 m 274.02° 269.09° Asphalt 0 ft / 0 m 525 ft / 160 m

Approach Navaids

Runway Type Ident Frequency Range Bearing (true) Bearing (mag) Slope Elevation
09 Localiser ISL 110.70 MHz 18 nm / 33 km 93.91° 88.98° - 1,741 ft / 531 m (AMSL)
09 Glidescope ISL 110.70 MHz 10 nm / 19 km 95.00° 90.07° 3.00° 1,741 ft / 531 m (AMSL)
09 DME ISL 110.70 MHz 18 nm / 33 km - - - 1,741 ft / 531 m (AMSL)
27 Localiser ISF 109.50 MHz 18 nm / 33 km 273.91° 268.98° - 1,741 ft / 531 m (AMSL)
27 Glidescope ISF 109.50 MHz 10 nm / 19 km 275.00° 270.07° 3.00° 1,741 ft / 531 m (AMSL)

Popular Alternatives